Time;durP1;ratioP1;P1;durP2;ratioP2;P2;SDS_P1;SDS_P2;PMS_P1;PMS_P2;Temp;Humidity;BMP_temperature;BMP_pressure;BME280_temperature;BME280_humidity;BME280_pressure;Samples;Min_cycle;Max_cycle;Signal;HPM_P1;HPM_P2
2022/11/24 00:01:06;;;;;;;9.43;6.47;;;;;;;10.03;55.35;93873.22;5031250;28;20025;-81
2022/11/24 00:03:31;;;;;;;14.55;8.38;;;;;;;10.02;55.17;93877.19;5007844;28;20033;-81
2022/11/24 00:06:04;;;;;;;14.70;9.90;;;;;;;10.05;55.21;93882.53;5006996;28;20040;-82
2022/11/24 00:08:29;;;;;;;14.52;9.18;;;;;;;9.97;55.27;93881.28;5019994;28;20468;-81
2022/11/24 00:10:55;;;;;;;15.43;9.90;;;;;;;9.90;55.35;93876.13;5011683;28;20033;-80
2022/11/24 00:13:20;;;;;;;17.13;11.20;;;;;;;9.88;55.64;93872.31;5028071;28;20385;-82
2022/11/24 00:15:46;;;;;;;18.27;11.70;;;;;;;9.93;55.65;93888.19;4977310;28;20516;-80
2022/11/24 00:18:11;;;;;;;16.60;11.52;;;;;;;9.91;55.37;93877.63;5001744;28;20403;-80
2022/11/24 00:20:37;;;;;;;19.08;14.63;;;;;;;9.96;55.37;93892.75;5039273;28;20033;-80
2022/11/24 00:23:02;;;;;;;23.15;17.73;;;;;;;9.98;55.14;93888.34;5007249;28;20052;-80
2022/11/24 00:25:27;;;;;;;24.90;19.80;;;;;;;9.96;55.07;93888.00;5007119;28;20064;-80
2022/11/24 00:27:53;;;;;;;24.75;17.27;;;;;;;9.94;55.27;93892.44;5007604;28;20034;-80
2022/11/24 00:30:18;;;;;;;30.92;22.20;;;;;;;9.95;55.42;93889.22;5007990;28;20025;-82
2022/11/24 00:32:44;;;;;;;27.92;23.02;;;;;;;9.92;55.30;93881.13;5028466;28;20412;-82
2022/11/24 00:35:09;;;;;;;34.78;25.80;;;;;;;9.82;55.51;93883.91;4996776;28;20408;-81
2022/11/24 00:37:35;;;;;;;26.13;20.25;;;;;;;9.84;55.53;93900.66;5029823;28;20404;-81
2022/11/24 00:40:00;;;;;;;28.05;21.42;;;;;;;9.73;55.60;93894.09;5005279;28;20466;-81
2022/11/24 00:42:25;;;;;;;30.70;23.85;;;;;;;9.55;56.35;93890.13;5016615;28;20056;-80
2022/11/24 00:44:52;;;;;;;26.92;20.63;;;;;;;9.55;56.17;93900.34;5010153;28;20033;-80
2022/11/24 00:47:17;;;;;;;22.15;16.05;;;;;;;9.54;56.10;93896.06;5022417;28;20052;-82
2022/11/24 00:49:43;;;;;;;18.48;12.63;;;;;;;9.55;56.25;93900.34;5039639;28;20029;-82
2022/11/24 00:52:08;;;;;;;15.50;12.02;;;;;;;9.54;56.33;93896.06;5028065;28;20411;-81
2022/11/24 00:54:33;;;;;;;17.30;10.35;;;;;;;9.56;56.09;93891.66;5028424;28;20531;-81
2022/11/24 00:56:59;;;;;;;19.55;12.13;;;;;;;9.44;56.61;93886.28;5014914;28;20490;-83
2022/11/24 00:59:24;;;;;;;15.23;10.80;;;;;;;9.42;56.49;93894.22;5013664;28;20416;-81
2022/11/24 01:01:50;;;;;;;26.75;15.35;;;;;;;9.26;56.78;93892.50;5010735;28;20420;-80
2022/11/24 01:04:15;;;;;;;22.42;15.73;;;;;;;9.17;57.18;93895.22;5010375;28;20453;-81
2022/11/24 01:06:41;;;;;;;20.77;15.50;;;;;;;9.13;57.44;93898.13;5007160;28;20715;-81
2022/11/24 01:09:06;;;;;;;21.65;14.38;;;;;;;8.96;57.91;93897.59;5014269;28;20548;-79
2022/11/24 01:12:00;;;;;;;19.35;11.75;;;;;;;8.93;58.00;93882.03;5013593;28;20018;-80
2022/11/24 01:14:19;;;;;;;21.30;13.95;;;;;;;8.96;58.35;93888.63;5015748;28;20038;-79
2022/11/24 01:16:45;;;;;;;14.60;10.35;;;;;;;8.85;58.52;93899.22;5011353;28;20480;-81
2022/11/24 01:19:10;;;;;;;9.45;5.75;;;;;;;8.92;58.32;93899.72;5030176;28;20718;-80
2022/11/24 01:21:36;;;;;;;9.93;5.90;;;;;;;8.94;58.61;93904.72;4993905;28;20029;-79
2022/11/24 01:24:01;;;;;;;11.55;7.40;;;;;;;8.94;58.51;93915.69;4989693;28;20026;-80
2022/11/24 01:26:27;;;;;;;34.70;23.42;;;;;;;8.95;58.33;93917.25;5023654;28;20038;-81
2022/11/24 01:28:53;;;;;;;33.30;24.85;;;;;;;8.95;58.24;93915.25;5018404;28;20033;-79
2022/11/24 01:31:18;;;;;;;35.00;24.98;;;;;;;9.01;58.02;93924.44;5010052;28;20483;-79
2022/11/24 01:33:44;;;;;;;37.17;24.52;;;;;;;9.04;57.88;93912.53;5026004;28;20080;-79
2022/11/24 01:36:09;;;;;;;33.33;24.13;;;;;;;9.04;58.10;93917.25;5019953;28;20037;-79
2022/11/24 01:38:35;;;;;;;36.60;24.30;;;;;;;9.10;57.92;93918.19;5026362;28;20414;-79
2022/11/24 01:41:11;;;;;;;36.70;26.73;;;;;;;9.15;57.62;93911.38;5026939;28;20087;-80
2022/11/24 01:43:36;;;;;;;30.10;21.73;;;;;;;9.20;57.72;93916.25;5010036;28;20017;-80
2022/11/24 01:46:29;;;;;;;25.33;19.00;;;;;;;9.21;57.92;93904.06;5027751;28;20019;-81
2022/11/24 01:49:20;;;;;;;26.05;18.88;;;;;;;9.18;57.99;93916.72;5012692;28;20371;-80
2022/11/24 01:52:16;;;;;;;26.00;18.45;;;;;;;9.15;58.27;93912.13;5000439;28;20551;-81
2022/11/24 01:54:44;;;;;;;28.30;20.50;;;;;;;9.05;58.23;93894.88;4990852;28;20436;-79
2022/11/24 01:57:25;;;;;;;32.05;21.27;;;;;;;9.01;59.00;93915.44;4991774;28;20041;-79
2022/11/24 01:59:53;;;;;;;28.55;18.88;;;;;;;9.10;58.41;93899.00;4989914;28;20037;-79
2022/11/24 02:02:18;;;;;;;26.08;18.40;;;;;;;9.09;58.44;93907.69;5014544;28;20052;-79
2022/11/24 02:04:44;;;;;;;31.45;20.15;;;;;;;9.03;58.62;93905.53;5006303;28;20484;-79
2022/11/24 02:07:09;;;;;;;30.95;19.63;;;;;;;9.08;58.28;93912.41;4994141;28;20574;-79
2022/11/24 02:09:40;;;;;;;27.52;17.60;;;;;;;9.10;57.88;93917.44;5008449;28;20018;-79
2022/11/24 02:12:06;;;;;;;26.65;17.20;;;;;;;9.04;57.73;93914.53;5009237;28;20507;-79
2022/11/24 02:14:33;;;;;;;24.88;15.88;;;;;;;9.01;57.66;93918.94;5010528;28;20041;-80
2022/11/24 02:16:58;;;;;;;27.58;16.95;;;;;;;9.00;57.31;93922.13;5011380;28;20022;-79
2022/11/24 02:19:30;;;;;;;21.63;13.77;;;;;;;8.98;57.67;93927.28;5025506;28;20037;-79
2022/11/24 02:21:55;;;;;;;23.02;13.05;;;;;;;9.01;57.13;93918.94;5029005;28;20045;-80
2022/11/24 02:24:39;;;;;;;21.10;13.75;;;;;;;8.88;57.51;93928.47;4997679;28;20040;-80
2022/11/24 02:27:04;;;;;;;24.73;13.80;;;;;;;8.84;57.57;93933.34;5009707;28;20034;-80
2022/11/24 02:29:30;;;;;;;23.95;13.80;;;;;;;8.89;57.57;93927.25;5020912;28;20034;-80
2022/11/24 02:31:58;;;;;;;20.52;11.88;;;;;;;8.87;57.67;93932.41;4968514;28;20372;-81
2022/11/24 02:34:23;;;;;;;19.30;12.43;;;;;;;8.83;57.48;93931.78;5016122;28;20065;-80
2022/11/24 02:36:49;;;;;;;17.30;11.27;;;;;;;8.84;57.59;93920.41;5026769;28;20025;-81
2022/11/24 02:39:16;;;;;;;18.65;11.07;;;;;;;8.87;57.67;93930.44;4996013;28;20033;-80
2022/11/24 02:41:43;;;;;;;18.23;12.13;;;;;;;8.85;57.64;93921.16;4988669;28;20044;-80
2022/11/24 02:44:08;;;;;;;19.58;10.85;;;;;;;8.85;57.54;93923.91;5015177;28;20034;-79
2022/11/24 02:46:34;;;;;;;20.45;12.60;;;;;;;8.85;57.94;93921.91;4991399;28;20064;-79
2022/11/24 02:48:59;;;;;;;20.13;12.10;;;;;;;8.80;58.24;93919.75;5026157;28;20145;-80
2022/11/24 02:51:25;;;;;;;18.63;10.63;;;;;;;8.84;58.15;93927.84;4976647;28;20033;-79
2022/11/24 02:53:50;;;;;;;18.98;11.60;;;;;;;8.80;58.63;93924.47;4988722;28;20048;-78
2022/11/24 02:56:15;;;;;;;20.67;12.02;;;;;;;8.82;58.46;93917.31;4986419;28;20086;-79
2022/11/24 02:58:41;;;;;;;19.35;11.82;;;;;;;8.80;58.32;93911.53;5041516;28;20029;-79
2022/11/24 03:01:06;;;;;;;18.67;12.38;;;;;;;8.80;58.54;93924.47;5014164;28;20479;-79
2022/11/24 03:03:32;;;;;;;17.00;11.63;;;;;;;8.69;58.86;93922.91;5025619;28;20038;-80
2022/11/24 03:05:58;;;;;;;19.95;11.85;;;;;;;8.82;58.63;93920.06;4992372;28;20018;-79
2022/11/24 03:08:23;;;;;;;19.13;11.68;;;;;;;8.91;58.18;93927.56;4975775;28;20033;-80
2022/11/24 03:10:49;;;;;;;20.55;12.75;;;;;;;8.88;58.43;93934.69;5024297;28;20034;-79
2022/11/24 03:13:14;;;;;;;17.10;10.65;;;;;;;8.83;58.43;93932.56;5035815;28;20069;-79
2022/11/24 03:15:40;;;;;;;18.38;11.57;;;;;;;8.81;58.89;93937.72;4981892;28;20044;-79
2022/11/24 03:18:05;;;;;;;19.15;11.25;;;;;;;8.85;58.81;93945.81;4988238;28;20022;-79
2022/11/24 03:20:31;;;;;;;19.15;11.13;;;;;;;8.87;58.84;93944.16;5021754;28;20037;-79
2022/11/24 03:22:56;;;;;;;16.15;11.90;;;;;;;8.93;59.02;93953.31;5007857;28;20498;-79
2022/11/24 03:25:22;;;;;;;22.73;11.82;;;;;;;8.93;58.83;93958.78;5040464;28;20025;-79
2022/11/24 03:27:47;;;;;;;18.83;12.18;;;;;;;8.94;58.80;93952.09;5043050;28;20080;-79
2022/11/24 03:30:13;;;;;;;19.15;11.10;;;;;;;8.98;58.79;93952.72;5024208;28;20096;-79
2022/11/24 03:32:38;;;;;;;19.63;10.25;;;;;;;8.93;58.56;93955.28;5005594;28;20034;-78
2022/11/24 03:35:04;;;;;;;15.43;9.65;;;;;;;8.96;58.43;93957.16;5001810;28;20044;-79
2022/11/24 03:37:30;;;;;;;17.80;8.77;;;;;;;8.96;58.20;93949.69;4986989;28;20136;-79
2022/11/24 03:39:55;;;;;;;13.35;8.73;;;;;;;9.00;58.09;93960.50;5010380;28;20061;-79
2022/11/24 03:42:21;;;;;;;16.25;8.70;;;;;;;9.03;57.89;93957.63;5022802;28;20419;-79
2022/11/24 03:44:46;;;;;;;18.33;9.90;;;;;;;9.10;57.45;93961.31;5007615;28;20542;-80
2022/11/24 03:47:12;;;;;;;17.50;10.10;;;;;;;9.09;57.93;93968.78;5018740;28;20415;-80
2022/11/24 03:49:38;;;;;;;17.75;10.57;;;;;;;9.09;57.73;93965.25;4994036;28;20521;-80
2022/11/24 03:52:03;;;;;;;17.27;8.63;;;;;;;9.14;56.95;93962.69;5001348;28;20064;-78
2022/11/24 03:54:29;;;;;;;14.95;8.85;;;;;;;9.05;57.19;93979.09;5007881;28;20032;-78
2022/11/24 03:56:54;;;;;;;20.50;9.90;;;;;;;9.00;57.82;93976.94;5007406;28;20120;-78
2022/11/24 03:59:20;;;;;;;20.98;9.35;;;;;;;9.05;57.78;93987.31;5008414;28;20026;-78
2022/11/24 04:01:45;;;;;;;14.88;8.25;;;;;;;9.08;57.50;93980.94;5003702;28;20037;-78
2022/11/24 04:04:11;;;;;;;14.00;8.15;;;;;;;9.05;57.61;93977.13;4993441;28;20029;-79
2022/11/24 04:06:37;;;;;;;18.15;9.00;;;;;;;9.08;57.60;93978.22;5007527;28;20037;-80
2022/11/24 04:09:03;;;;;;;21.05;10.68;;;;;;;9.09;57.91;93979.72;5010148;28;20111;-78
2022/11/24 04:14:12;;;;;;;19.05;10.98;;;;;;;9.03;58.29;93987.78;5021853;28;20144;-79
2022/11/24 04:16:38;;;;;;;19.52;10.90;;;;;;;8.95;58.68;93997.50;5024172;28;20468;-79
2022/11/24 04:19:03;;;;;;;19.98;11.57;;;;;;;8.96;58.90;93992.78;4984583;28;20048;-80
2022/11/24 04:21:29;;;;;;;18.48;10.38;;;;;;;9.05;58.84;93987.31;4990139;28;20034;-79
2022/11/24 04:23:55;;;;;;;17.35;11.25;;;;;;;9.06;58.70;93994.34;5020983;28;20654;-80
2022/11/24 04:26:20;;;;;;;20.13;11.15;;;;;;;9.12;58.68;94002.75;5005199;28;20022;-82
2022/11/24 04:28:45;;;;;;;19.10;11.40;;;;;;;9.08;58.57;94002.13;5018705;28;20479;-81
2022/11/24 04:31:11;;;;;;;18.98;11.43;;;;;;;9.07;58.76;94008.81;5001160;28;20503;-80
2022/11/24 04:33:36;;;;;;;19.85;12.07;;;;;;;9.14;58.86;94019.53;4999847;28;20425;-82
2022/11/24 04:36:02;;;;;;;18.23;11.20;;;;;;;9.20;58.21;94007.50;5011832;28;20088;-81
2022/11/24 04:38:27;;;;;;;15.82;9.70;;;;;;;9.22;58.39;94009.78;5025606;28;20030;-80
2022/11/24 04:40:53;;;;;;;17.30;11.07;;;;;;;9.20;58.14;94007.50;4979078;28;20022;-79
2022/11/24 04:43:20;;;;;;;16.73;11.43;;;;;;;9.11;58.45;94001.22;5028752;28;20021;-80
2022/11/24 04:45:46;;;;;;;17.67;10.98;;;;;;;9.14;58.38;94006.56;4979247;28;20028;-81
2022/11/24 04:48:12;;;;;;;18.85;11.27;;;;;;;9.11;58.57;94018.44;4992612;28;20038;-81
2022/11/24 04:50:37;;;;;;;17.95;11.23;;;;;;;9.07;58.52;94014.31;5011087;28;20491;-82
2022/11/24 04:53:03;;;;;;;22.38;12.48;;;;;;;9.08;58.61;94013.09;4994636;28;20021;-80
2022/11/24 04:55:28;;;;;;;18.40;11.55;;;;;;;9.03;58.85;94019.91;4975220;28;20740;-83
2022/11/24 04:57:54;;;;;;;18.42;11.80;;;;;;;9.00;58.97;94021.59;4993218;28;20026;-82
2022/11/24 05:00:20;;;;;;;20.48;12.70;;;;;;;8.95;59.62;94024.91;4994362;28;20025;-81
2022/11/24 05:02:46;;;;;;;19.13;11.57;;;;;;;8.96;59.23;94020.94;5010907;28;20534;-82
2022/11/24 05:05:11;;;;;;;23.00;12.55;;;;;;;8.95;59.19;94033.13;5007603;28;20034;-80
2022/11/24 05:07:36;;;;;;;21.80;12.45;;;;;;;8.93;59.55;94027.31;5027268;28;20025;-80
2022/11/24 05:12:52;;;;;;;;;;;;;;;8.98;59.44;94047.91;5012559;28;20095;-80
2022/11/24 05:15:18;;;;;;;19.20;12.55;;;;;;;8.85;59.63;94047.22;5009486;28;20336;-80
2022/11/24 05:17:43;;;;;;;20.52;12.48;;;;;;;8.93;59.88;94043.75;5031067;28;20045;-79
2022/11/24 05:20:09;;;;;;;20.05;12.95;;;;;;;8.99;59.51;94039.22;4986985;28;20441;-78
2022/11/24 05:22:34;;;;;;;21.77;12.90;;;;;;;9.00;59.64;94032.56;5026734;28;20064;-79
2022/11/24 05:25:00;;;;;;;21.17;12.32;;;;;;;9.12;59.46;94036.44;5022883;28;20018;-79
2022/11/24 05:27:26;;;;;;;17.30;11.80;;;;;;;9.15;59.21;94042.97;5005329;28;20026;-78
2022/11/24 05:29:51;;;;;;;22.48;12.98;;;;;;;9.23;59.20;94039.53;4992768;28;20087;-78
2022/11/24 05:32:16;;;;;;;25.55;13.85;;;;;;;9.26;59.19;94046.84;4994165;28;20040;-79
2022/11/24 05:34:42;;;;;;;16.35;12.02;;;;;;;9.26;59.08;94040.59;5010795;28;20041;-79
2022/11/24 05:37:07;;;;;;;24.73;13.43;;;;;;;9.31;58.99;94051.00;5010389;28;20033;-78
2022/11/24 05:39:34;;;;;;;25.33;13.88;;;;;;;9.40;58.81;94053.75;5004250;28;20036;-80
2022/11/24 05:42:39;;;;;;;35.78;15.25;;;;;;;9.28;59.22;94049.91;5012543;28;20025;-77
2022/11/24 05:44:47;;;;;;;25.55;15.32;;;;;;;9.34;59.07;94055.56;4994354;28;20048;-79
2022/11/24 05:47:12;;;;;;;29.85;18.13;;;;;;;9.41;58.75;94055.31;5009395;28;20026;-79
2022/11/24 05:49:38;;;;;;;32.85;20.25;;;;;;;9.48;58.56;94059.75;4974715;28;20539;-79
2022/11/24 05:52:03;;;;;;;31.92;20.20;;;;;;;9.49;58.50;94061.28;4993646;28;20026;-78
2022/11/24 05:54:29;;;;;;;35.22;20.58;;;;;;;9.41;58.45;94060.03;5009866;28;20035;-78
2022/11/24 05:56:54;;;;;;;38.53;22.17;;;;;;;9.46;58.41;94053.94;4994279;28;20032;-78
2022/11/24 05:59:20;;;;;;;38.13;19.85;;;;;;;9.41;58.40;94060.03;4994611;28;20455;-79
2022/11/24 06:01:45;;;;;;;31.98;19.98;;;;;;;9.45;58.23;94064.16;5009382;28;20022;-79
2022/11/24 06:04:11;;;;;;;42.05;22.63;;;;;;;9.49;58.28;94066.75;5005744;28;20032;-81
2022/11/24 06:06:36;;;;;;;35.20;21.75;;;;;;;9.47;58.11;94061.75;4977306;28;20034;-81
2022/11/24 06:09:02;;;;;;;36.90;23.00;;;;;;;9.50;58.04;94066.31;5003971;28;20079;-81
2022/11/24 06:11:27;;;;;;;46.88;24.35;;;;;;;9.43;58.33;94077.56;5029395;28;20032;-80
2022/11/24 06:13:53;;;;;;;34.60;21.00;;;;;;;9.52;58.33;94080.34;5004154;28;20401;-79
2022/11/24 06:16:18;;;;;;;33.28;19.98;;;;;;;9.54;58.02;94071.66;5041522;28;20029;-80
2022/11/24 06:18:43;;;;;;;31.92;19.02;;;;;;;9.52;58.06;94074.88;5018485;28;20025;-80
2022/11/24 06:21:09;;;;;;;34.55;18.98;;;;;;;9.50;58.35;94084.75;4987545;28;20030;-80
2022/11/24 06:23:34;;;;;;;25.50;18.00;;;;;;;9.58;57.88;94086.03;4993343;28;20496;-80
2022/11/24 06:26:00;;;;;;;28.38;17.23;;;;;;;9.62;57.70;94083.88;5009376;28;20029;-80
2022/11/24 06:28:26;;;;;;;32.05;19.67;;;;;;;9.55;58.15;94095.13;4993300;28;20040;-82
2022/11/24 06:30:53;;;;;;;30.40;20.63;;;;;;;9.56;58.17;94093.91;4993729;28;20400;-85
2022/11/24 06:33:18;;;;;;;37.20;21.40;;;;;;;9.63;57.67;94109.34;5008490;28;20076;-79
2022/11/24 06:35:44;;;;;;;38.65;23.23;;;;;;;9.56;57.58;94113.13;4990061;28;20105;-80
2022/11/24 06:38:09;;;;;;;54.88;40.05;;;;;;;9.57;57.67;94120.91;4989359;28;20026;-76
2022/11/24 06:40:34;;;;;;;75.07;64.47;;;;;;;9.54;58.02;94137.53;5001790;28;20040;-75
2022/11/24 06:43:00;;;;;;;67.00;52.47;;;;;;;9.54;58.20;94138.28;5025943;28;20117;-75
2022/11/24 06:45:25;;;;;;;57.53;46.15;;;;;;;9.55;57.90;94139.03;5009250;28;20034;-75
2022/11/24 06:47:54;;;;;;;45.58;31.77;;;;;;;9.52;58.06;94142.69;5026477;28;20045;-82
2022/11/24 06:50:20;;;;;;;34.03;22.17;;;;;;;9.51;58.07;94149.38;4989688;28;20826;-81
2022/11/24 06:52:46;;;;;;;23.63;16.38;;;;;;;9.43;58.13;94146.13;4990154;28;20018;-79
2022/11/24 06:55:12;;;;;;;25.13;14.57;;;;;;;9.46;57.93;94158.19;4989000;28;20362;-74
2022/11/24 06:57:37;;;;;;;21.60;13.45;;;;;;;9.39;58.32;94152.97;5007380;28;20537;-75
2022/11/24 07:00:03;;;;;;;23.30;12.43;;;;;;;9.49;57.98;94169.03;5024313;28;20036;-78
2022/11/24 07:02:29;;;;;;;16.65;10.63;;;;;;;9.42;57.79;94163.81;5010921;28;20108;-78
2022/11/24 07:04:54;;;;;;;16.33;9.90;;;;;;;9.39;57.99;94166.69;5026040;28;20369;-79
2022/11/24 07:07:20;;;;;;;17.60;11.23;;;;;;;9.47;57.90;94174.22;5007236;28;20399;-82
2022/11/24 07:09:45;;;;;;;25.10;13.23;;;;;;;9.40;57.98;94174.47;5020095;28;20435;-78
2022/11/24 07:12:10;;;;;;;25.58;12.65;;;;;;;9.49;58.02;94182.00;5021939;28;20447;-79
2022/11/24 07:14:36;;;;;;;19.17;10.52;;;;;;;9.52;58.09;94181.88;4987591;28;20389;-78
2022/11/24 07:17:03;;;;;;;15.90;11.05;;;;;;;9.54;58.22;94186.91;5020331;28;20033;-78
2022/11/24 07:19:29;;;;;;;17.15;9.82;;;;;;;9.53;58.16;94182.63;5007877;28;20052;-78
2022/11/24 07:21:54;;;;;;;16.00;9.00;;;;;;;9.56;58.57;94193.47;5008719;28;20022;-78
2022/11/24 07:24:20;;;;;;;19.10;10.27;;;;;;;9.57;58.58;94211.44;5041893;28;20096;-78
2022/11/24 07:26:45;;;;;;;16.25;10.30;;;;;;;9.64;58.68;94202.22;5007800;28;20022;-79
2022/11/24 07:29:10;;;;;;;13.88;9.23;;;;;;;9.62;58.86;94207.38;4989625;28;20546;-78
2022/11/24 07:31:36;;;;;;;13.05;8.25;;;;;;;9.61;59.03;94211.34;5007246;28;20052;-78
2022/11/24 07:34:01;;;;;;;11.77;8.57;;;;;;;9.54;59.13;94206.88;5008016;28;20040;-78
2022/11/24 07:36:27;;;;;;;10.95;8.43;;;;;;;9.50;59.29;94216.44;5004225;28;20029;-79
2022/11/24 07:38:52;;;;;;;12.50;8.95;;;;;;;9.40;59.57;94214.84;4987069;28;20109;-78
2022/11/24 07:41:18;;;;;;;11.15;8.68;;;;;;;9.44;59.38;94220.97;5019171;28;20048;-79
2022/11/24 07:43:44;;;;;;;17.05;10.43;;;;;;;9.45;59.51;94225.25;4991533;28;20114;-79
2022/11/24 07:46:11;;;;;;;13.50;8.52;;;;;;;9.46;59.63;94222.06;5004192;28;20092;-78
2022/11/24 07:48:36;;;;;;;14.00;9.00;;;;;;;9.49;59.33;94231.38;4992607;28;20065;-78
2022/11/24 07:51:03;;;;;;;13.45;9.63;;;;;;;9.35;59.73;94226.38;5012676;28;20030;-78
2022/11/24 07:53:28;;;;;;;17.10;9.65;;;;;;;9.13;60.07;94227.16;4977558;28;20025;-76
2022/11/24 07:56:00;;;;;;;11.82;8.52;;;;;;;9.23;59.77;94236.19;4991735;28;20042;-77
2022/11/24 07:58:31;;;;;;;11.20;8.55;;;;;;;9.20;60.24;94254.31;4990245;28;20550;-77
2022/11/24 08:00:56;;;;;;;11.50;8.27;;;;;;;9.18;59.97;94245.78;4997559;28;20021;-78
2022/11/24 08:03:22;;;;;;;10.00;7.60;;;;;;;9.18;59.97;94253.25;5029420;28;20400;-78
2022/11/24 08:05:54;;;;;;;11.05;8.45;;;;;;;9.23;59.83;94253.44;5028088;28;20026;-78
2022/11/24 08:08:20;;;;;;;11.40;7.47;;;;;;;9.20;59.68;94257.06;5028695;28;20535;-78
2022/11/24 08:10:45;;;;;;;10.15;6.90;;;;;;;9.20;59.48;94259.03;4994299;28;20040;-78
2022/11/24 08:13:11;;;;;;;11.23;6.95;;;;;;;9.11;59.45;94256.97;5007674;28;20072;-78
2022/11/24 08:15:36;;;;;;;11.32;7.47;;;;;;;9.04;59.50;94268.19;5001974;28;20034;-77
2022/11/24 08:18:02;;;;;;;8.43;6.32;;;;;;;8.95;59.88;94263.41;5023895;28;20042;-77
2022/11/24 08:20:27;;;;;;;11.52;6.15;;;;;;;8.93;59.77;94262.28;5014204;28;20025;-78
2022/11/24 08:22:57;;;;;;;9.45;6.47;;;;;;;8.94;59.31;94269.31;5010710;28;20036;-78
2022/11/24 08:25:24;;;;;;;11.15;6.97;;;;;;;8.93;59.42;94270.50;5011944;28;20022;-77
2022/11/24 08:27:49;;;;;;;10.45;6.30;;;;;;;8.96;59.39;94284.13;5029275;28;20048;-77
2022/11/24 08:30:15;;;;;;;9.25;5.93;;;;;;;8.97;59.13;94276.66;5029166;28;20396;-78
2022/11/24 08:32:40;;;;;;;9.93;6.25;;;;;;;8.96;59.03;94277.88;5029883;28;20575;-77
2022/11/24 08:35:07;;;;;;;7.47;5.30;;;;;;;9.04;58.78;94279.16;5011379;28;20035;-77
2022/11/24 08:37:32;;;;;;;6.88;4.75;;;;;;;8.93;58.90;94274.03;5029791;28;20036;-78
2022/11/24 08:39:57;;;;;;;6.75;4.85;;;;;;;8.92;59.21;94293.66;5029462;28;20026;-78
2022/11/24 08:42:23;;;;;;;7.93;4.45;;;;;;;8.87;58.68;94286.00;5029523;28;20017;-77
2022/11/24 08:44:48;;;;;;;5.68;3.80;;;;;;;8.88;58.51;94295.75;5028476;28;20017;-77
2022/11/24 08:47:14;;;;;;;4.65;3.00;;;;;;;8.76;58.25;94295.31;5027977;28;20022;-77
2022/11/24 08:49:40;;;;;;;5.32;3.05;;;;;;;8.69;58.15;94290.06;5011671;28;20044;-79
2022/11/24 08:52:05;;;;;;;4.38;2.70;;;;;;;8.66;57.92;94299.19;5011268;28;20029;-78
2022/11/24 08:54:30;;;;;;;5.20;2.50;;;;;;;8.65;58.13;94296.84;5011647;28;20136;-79
2022/11/24 08:56:56;;;;;;;3.15;2.22;;;;;;;8.65;58.04;94292.16;5019553;28;20458;-79
2022/11/24 08:59:21;;;;;;;4.40;2.40;;;;;;;8.66;57.99;94293.69;5030148;28;20079;-78
2022/11/24 09:01:48;;;;;;;3.22;1.95;;;;;;;8.59;57.93;94304.88;5028690;28;20021;-78
2022/11/24 09:04:13;;;;;;;3.30;2.00;;;;;;;8.52;57.65;94294.13;5011352;28;20030;-79
2022/11/24 09:06:38;;;;;;;6.70;2.90;;;;;;;8.49;57.41;94292.28;5011857;28;20052;-78
2022/11/24 09:09:04;;;;;;;3.88;1.77;;;;;;;8.53;56.87;94295.66;5027516;28;20411;-78
2022/11/24 09:11:29;;;;;;;3.13;1.55;;;;;;;8.56;56.66;94308.50;5027640;28;20022;-78
2022/11/24 09:13:55;;;;;;;3.25;1.60;;;;;;;8.50;56.03;94302.03;5010511;28;20037;-78
2022/11/24 09:16:25;;;;;;;2.17;1.20;;;;;;;8.45;55.98;94317.03;5028667;28;20073;-79
2022/11/24 09:18:58;;;;;;;2.15;1.35;;;;;;;8.52;55.67;94318.78;5010918;28;20095;-78
2022/11/24 09:21:24;;;;;;;;;;;;;;;8.57;55.62;94320.22;5011937;28;20049;-78
2022/11/24 09:23:50;;;;;;;1.67;1.10;;;;;;;8.55;55.81;94320.66;5011448;28;20363;-77
2022/11/24 09:26:17;;;;;;;4.40;1.25;;;;;;;8.54;55.73;94318.34;5027202;28;20171;-77
2022/11/24 09:28:43;;;;;;;2.72;1.50;;;;;;;8.57;55.55;94323.72;4994882;28;20076;-79
2022/11/24 09:31:10;;;;;;;1.80;1.23;;;;;;;8.58;55.28;94319.00;5010652;28;20100;-79
2022/11/24 09:33:36;;;;;;;1.83;1.02;;;;;;;8.51;55.45;94317.25;5028702;28;20060;-78
2022/11/24 09:36:01;;;;;;;2.75;1.55;;;;;;;8.60;55.19;94324.81;5010514;28;20084;-78
2022/11/24 09:38:27;;;;;;;3.20;1.75;;;;;;;8.64;55.43;94330.94;5010720;28;20097;-77
2022/11/24 09:40:52;;;;;;;2.33;1.60;;;;;;;8.62;55.45;94331.41;5027260;28;20028;-77
2022/11/24 09:43:33;;;;;;;5.30;2.22;;;;;;;8.62;55.82;94325.16;5010288;28;20056;-78
2022/11/24 09:46:07;;;;;;;3.15;1.70;;;;;;;8.51;55.11;94333.69;5027317;28;20033;-78
2022/11/24 09:48:41;;;;;;;3.22;1.75;;;;;;;8.49;54.89;94330.63;5026513;28;20508;-77
2022/11/24 09:51:10;;;;;;;4.30;3.17;;;;;;;8.53;54.61;94339.50;5010770;28;20502;-77
2022/11/24 09:53:50;;;;;;;2.78;1.35;;;;;;;8.52;54.70;94335.22;5026774;28;20033;-77
2022/11/24 09:56:21;;;;;;;2.50;1.20;;;;;;;8.48;54.30;94338.06;5028552;28;20030;-78
2022/11/24 09:59:03;;;;;;;2.58;1.52;;;;;;;8.43;54.45;94346.06;5028795;28;20029;-77
2022/11/24 10:01:30;;;;;;;4.18;1.70;;;;;;;8.43;54.31;94337.84;5010994;28;20025;-79
2022/11/24 10:03:56;;;;;;;2.80;2.00;;;;;;;8.41;54.20;94351.97;5014708;28;20028;-78
2022/11/24 10:06:36;;;;;;;7.05;2.35;;;;;;;8.42;54.26;94345.28;5026768;28;20029;-78
2022/11/24 10:09:08;;;;;;;2.70;1.98;;;;;;;8.41;54.60;94337.50;5026612;28;20034;-78
2022/11/24 10:11:45;;;;;;;2.70;2.30;;;;;;;8.40;54.88;94347.72;5027353;28;20064;-78
2022/11/24 10:14:29;;;;;;;4.13;2.13;;;;;;;8.40;54.53;94344.97;5026096;28;20056;-78
2022/11/24 10:17:23;;;;;;;3.75;2.38;;;;;;;8.46;54.36;94353.41;5028125;28;20032;-78
2022/11/24 10:19:56;;;;;;;4.10;2.63;;;;;;;8.45;54.30;94347.16;5010262;28;20442;-78
2022/11/24 10:22:48;;;;;;;5.43;2.65;;;;;;;8.42;54.03;94355.47;5025523;28;20100;-79
2022/11/24 10:25:40;;;;;;;4.80;3.17;;;;;;;8.37;54.10;94353.28;5026401;28;20037;-77
2022/11/24 10:28:09;;;;;;;4.32;3.40;;;;;;;8.34;54.33;94351.41;5026182;28;20072;-77
2022/11/24 10:30:34;;;;;;;4.15;2.60;;;;;;;8.33;54.47;94352.59;5009505;28;20033;-79
2022/11/24 10:33:01;;;;;;;7.65;3.33;;;;;;;8.38;54.23;94352.09;5026608;28;20022;-79
2022/11/24 10:35:35;;;;;;;3.35;2.38;;;;;;;8.24;53.87;94356.75;5008725;28;20041;-76
2022/11/24 10:38:10;;;;;;;4.07;2.67;;;;;;;8.28;53.78;94362.13;5009920;28;20365;-78
2022/11/24 10:40:40;;;;;;;4.97;3.00;;;;;;;8.31;53.96;94355.00;5026358;28;20068;-77
2022/11/24 10:43:09;;;;;;;2.88;2.25;;;;;;;8.32;53.76;94351.06;5009653;28;20037;-76
2022/11/24 10:45:36;;;;;;;4.00;2.75;;;;;;;8.35;57.06;94352.94;5009731;28;20099;-78
2022/11/24 10:48:01;;;;;;;5.75;2.92;;;;;;;8.30;53.44;94350.72;5009128;28;20049;-79
2022/11/24 10:50:30;;;;;;;5.72;3.58;;;;;;;8.23;53.36;94349.72;5009639;28;20156;-80
2022/11/24 10:53:28;;;;;;;5.47;3.30;;;;;;;8.18;53.60;94352.25;5025262;28;20071;-78
2022/11/24 10:55:55;;;;;;;5.18;2.65;;;;;;;8.19;53.71;94349.06;5025836;28;20022;-78
2022/11/24 10:58:22;;;;;;;6.43;2.47;;;;;;;8.23;52.46;94354.44;5026608;28;20454;-79
2022/11/24 11:00:48;;;;;;;4.05;2.50;;;;;;;8.24;52.69;94351.25;5025397;28;20029;-79
2022/11/24 11:03:18;;;;;;;4.07;2.92;;;;;;;8.29;53.01;94360.91;5025763;28;20087;-79
2022/11/24 11:05:47;;;;;;;4.13;2.92;;;;;;;8.35;52.13;94356.44;4992399;28;20482;-77
2022/11/24 11:08:13;;;;;;;4.15;2.70;;;;;;;8.31;52.42;94355.00;5014066;28;20060;-76
2022/11/24 11:10:38;;;;;;;3.65;2.78;;;;;;;8.32;54.77;94354.59;5027428;28;20468;-79
2022/11/24 11:13:50;;;;;;;4.55;3.10;;;;;;;8.28;52.74;94375.81;5025507;28;20026;-78
2022/11/24 11:16:35;;;;;;;4.38;3.15;;;;;;;8.32;52.15;94375.72;4969791;28;20058;-78
2022/11/24 11:19:02;;;;;;;6.25;3.70;;;;;;;8.34;51.75;94378.78;5026691;28;20033;-77
2022/11/24 11:21:27;;;;;;;7.22;4.10;;;;;;;8.37;53.57;94361.50;4993308;28;20144;-78
2022/11/24 11:23:53;;;;;;;7.00;4.28;;;;;;;8.17;52.26;94367.13;5024958;28;20486;-78
2022/11/24 11:26:26;;;;;;;6.30;4.25;;;;;;;8.35;52.58;94372.88;4992606;28;20036;-78
2022/11/24 11:29:07;;;;;;;6.50;4.07;;;;;;;8.44;51.71;94378.50;5026803;28;20072;-78
2022/11/24 11:31:35;;;;;;;5.07;3.70;;;;;;;8.41;51.40;94376.63;5026253;28;20033;-79
2022/11/24 11:34:08;;;;;;;6.97;4.00;;;;;;;8.46;51.39;94375.31;5008934;28;20029;-79
2022/11/24 11:36:33;;;;;;;6.88;3.92;;;;;;;8.46;51.50;94376.09;5024599;28;20060;-78
2022/11/24 11:38:59;;;;;;;6.30;4.45;;;;;;;8.54;52.19;94359.44;5008758;28;20482;-78